Historyczne dane pomiarowe

Dodano dane terminowe – wersja testowa.

Dane z okresu 1951-2019

Wersja bazy: 1.34 [2019-03-16, lista zmian], aktualizacja planowana na 2019-04-15

Dane meteo z obszaru Polski uzyskane na podstawie danych udostępnionych przez Instytut Meteorologii i Gospodarki Wodnej – Państwowy Instytut Badawczy.

 

Wybierz Datę:    

       

TemperaturaWilgotnośćWiatrCiśnienieOpadyŚniegCzas trwania zjawisk
 Stacja t tx tn tng RH VA  wxwx mslp ppp RRR   cm mm wxwxwxwxwxwxwx
1961-08-14 13.8 18.6 7.8 6.0-- 2.0 0.7---- 0.0------------
1961-08-13 13.7 16.1 11.5 13.0-- 8.0 2.7---- 0.0------------
1961-08-12 17.2 22.3 14.4 15.0-- 6.7 0.7---- 46.2------------
1961-08-11 19.6 23.9 16.1 14.3-- 5.3 0.0---- 0.2------------
1961-08-10 23.8 28.7 17.7 16.2-- 2.3 2.0---- 5.4------------
1961-08-09 22.2 27.7 13.2 12.0-- 4.3 1.0---- 1.0------------
1961-08-08 17.5 21.1 13.7 12.0-- 3.3 1.7---- 0.0------------
1961-08-07 21.0 25.5 15.0 12.6-- 3.7 2.0---- 0.0------------
1961-08-06 22.2 29.7 13.7 12.5-- 0.0 2.3---- 0.0------------
1961-08-05 18.3 23.7 14.2 12.8-- 2.7 0.7---- 0.0------------
1961-08-04 15.6 19.7 7.0 4.5-- 3.7 1.3---- 0.0------------
1961-08-03 15.2 20.5 12.1 11.0-- 5.3 2.3---- 0.0------------
1961-08-02 18.1 25.3 12.7 8.2-- 1.7 2.7---- 0.0------------
1961-08-01 14.5 19.7 10.3 6.5-- 3.7 5.7---- 0.0------------
1961-07-31 11.8 12.8 10.3 9.2-- 8.0 5.0---- 41.9------------
1961-07-30 12.2 13.0 10.5 10.0-- 8.0 3.0---- 28.7------------
1961-07-29 13.4 17.8 11.3 12.0-- 6.3 1.7---- 0.0------------
1961-07-28 17.9 23.7 13.0 9.5-- 8.0 1.3---- 26.0------------
1961-07-27 19.4 25.1 13.6 11.2-- 7.3 4.0---- 0.9------------
1961-07-26 17.1 22.1 8.8 7.3-- 7.3 3.3---- 0.0------------
1961-07-25 13.8 17.1 8.3 7.0-- 8.0 2.0---- 0.0------------
1961-07-24 13.6 16.8 11.6 11.3-- 6.7 4.3---- 0.0------------
1961-07-23 14.9 18.7 8.5 12.0-- 5.0 3.7---- 0.0------------
1961-07-22 14.5 18.5 9.5 12.0-- 7.3 3.7---- 2.0------------
1961-07-21 14.4 18.5 9.5 7.4-- 8.0 3.7---- 7.5------------
1961-07-20 14.5 20.5 6.5 5.5-- 5.0 0.7---- 2.7------------
1961-07-19 13.6 17.3 8.3 6.5-- 5.7 0.7---- 0.0------------
1961-07-18 14.0 18.3 9.3 12.5-- 5.0 2.7---- 0.0------------
1961-07-17 13.8 20.8 10.9 10.0-- 2.3 1.3---- 4.9------------
1961-07-16 14.0 22.3 9.6 9.6-- 5.3 2.7---- 15.5------------
1961-07-15 16.5 21.7 9.8 11.0-- 4.7 1.7---- 10.2------------
1961-07-14 17.0 18.8 12.1 11.8-- 7.3 3.7---- 0.0------------
1961-07-13 20.2 29.7 14.0 12.5-- 5.7 3.3---- 18.7------------
1961-07-12 20.1 26.5 10.9 8.1-- 5.3 1.3---- 11.7------------
1961-07-11 15.2 20.9 7.2 7.4-- 2.7 3.0---- 0.0------------
1961-07-10 14.6 19.0 8.2 7.5-- 8.0 3.7---- 0.3------------
1961-07-09 14.1 22.1 3.4 12.0-- 5.0 3.0---- 1.5------------
1961-07-08 14.3 21.5 3.4 0.0-- 2.0 1.0---- 0.0------------
1961-07-07 12.4 17.8 6.2 7.3-- 5.0 2.3---- 0.0------------
1961-07-06 12.2 15.8 5.5 3.5-- 7.3 3.3---- 0.7------------
1961-07-05 13.6 17.8 9.6 10.5-- 5.3 2.3---- 0.0------------
1961-07-04 19.7 27.8 15.4 15.4-- 7.3 2.7---- 2.0------------
1961-07-03 23.8 31.8 10.5 9.0-- 1.0 1.7---- 0.0------------
1961-07-02 20.9 29.3 8.0 7.0-- 0.0 1.0---- 0.0------------
1961-07-01 20.6 27.3 9.4 7.5-- 0.7 1.3---- 0.0------------
1961-06-30 18.2 24.8 7.0 6.0-- 1.0 1.0---- 0.0------------
1961-06-29 14.3 19.6 7.4 11.2-- 3.0 1.7---- 0.0------------
1961-06-28 12.6 19.5 9.0 14.0-- 5.3 2.7---- 0.3------------
1961-06-27 22.8 32.8 15.2 17.4-- 4.0 1.7---- 25.0------------
1961-06-26 22.7 30.1 11.8 9.2-- 2.0 0.7---- 0.0------------
1961-06-25 21.3 29.3 9.5 7.4-- 1.0 2.7---- 0.0------------
1961-06-24 17.5 24.1 8.0 6.0-- 2.7 2.3---- 0.0------------
1961-06-23 17.1 23.8 13.7 14.3-- 4.3 2.0---- 3.3------------
1961-06-22 17.5 24.3 4.5 2.5-- 4.7 1.7---- 0.0------------
1961-06-21 15.9 24.3 3.0 4.6-- 1.3 2.3---- 0.3------------
1961-06-20 13.4 19.8 4.5 5.8-- 0.3 1.7---- 0.0------------
1961-06-19 14.3 20.8 11.4 8.2-- 2.7 1.7---- 0.8------------
1961-06-18 19.6 27.1 8.2 5.0-- 1.7 1.7---- 0.0------------
1961-06-17 14.6 22.8 3.8 8.0-- 2.7 1.3---- 0.0------------
1961-06-16 12.4 16.3 7.2 6.0-- 3.3 2.0---- 0.0------------
389.5 ms

 

Źródłem pochodzenia danych jest Instytut Meteorologii i Gospodarki Wodnej – Państwowy Instytut Badawczy. Dane Instytutu Meteorologii i Gospodarki Wodnej – Państwowego Instytutu Badawczego zostały przetworzone.

Dane źródłowe można odnaleźć na stronie https://dane.imgw.pl